createdAt,value
2022-12-31T00:00:06.564Z,1002.25
2022-12-31T00:01:06.605Z,1002.28
2022-12-31T00:02:06.574Z,1002.27
2022-12-31T00:03:06.576Z,1002.32
2022-12-31T00:04:06.492Z,1002.37
2022-12-31T00:05:06.481Z,1002.41
2022-12-31T00:06:06.487Z,1002.39
2022-12-31T00:07:06.450Z,1002.34
2022-12-31T00:08:06.561Z,1002.40
2022-12-31T00:09:06.451Z,1002.38
2022-12-31T00:10:06.424Z,1002.41
2022-12-31T00:11:06.432Z,1002.33
2022-12-31T00:12:06.400Z,1002.34
2022-12-31T00:13:06.391Z,1002.40
2022-12-31T00:14:06.387Z,1002.41
2022-12-31T00:15:06.364Z,1002.46
2022-12-31T00:16:11.804Z,1002.53
2022-12-31T00:17:06.424Z,1002.60
2022-12-31T00:18:06.345Z,1002.41
2022-12-31T00:19:06.341Z,1002.50
2022-12-31T00:20:06.334Z,1002.51
2022-12-31T00:21:06.341Z,1002.55
2022-12-31T00:22:06.300Z,1002.48
2022-12-31T00:23:06.313Z,1002.48
2022-12-31T00:24:06.297Z,1002.52
2022-12-31T00:25:06.305Z,1002.54
2022-12-31T00:26:06.269Z,1002.55
2022-12-31T00:27:06.245Z,1002.64
2022-12-31T00:28:06.235Z,1002.66
2022-12-31T00:29:06.280Z,1002.63
2022-12-31T00:30:06.214Z,1002.66
2022-12-31T00:31:06.287Z,1002.64
2022-12-31T00:32:06.210Z,1002.68
2022-12-31T00:33:06.214Z,1002.66
2022-12-31T00:34:06.170Z,1002.68
2022-12-31T00:35:06.182Z,1002.62
2022-12-31T00:36:06.174Z,1002.68
2022-12-31T00:37:06.161Z,1002.69
2022-12-31T00:38:06.134Z,1002.70
2022-12-31T00:39:06.121Z,1002.69
2022-12-31T00:40:06.121Z,1002.75
2022-12-31T00:41:06.175Z,1002.71
2022-12-31T00:42:06.090Z,1002.70
2022-12-31T00:43:06.106Z,1002.68
2022-12-31T00:44:06.091Z,1002.67
2022-12-31T00:45:06.056Z,1002.65
2022-12-31T00:46:06.134Z,1002.60
2022-12-31T00:47:06.069Z,1002.61
2022-12-31T00:48:06.029Z,1002.59
2022-12-31T00:49:06.043Z,1002.63
2022-12-31T00:50:06.009Z,1002.62
2022-12-31T00:51:06.041Z,1002.61
2022-12-31T00:52:05.998Z,1002.63
2022-12-31T00:53:05.999Z,1002.61
2022-12-31T00:54:05.972Z,1002.61
2022-12-31T00:55:05.963Z,1002.56
2022-12-31T00:56:05.953Z,1002.56
2022-12-31T00:57:05.957Z,1002.54
2022-12-31T00:58:05.924Z,1002.58
2022-12-31T00:59:05.925Z,1002.66
2022-12-31T01:00:05.909Z,1002.72
2022-12-31T01:01:06.009Z,1002.70
2022-12-31T01:02:06.063Z,1002.74
2022-12-31T01:03:05.997Z,1002.76
2022-12-31T01:04:05.869Z,1002.80
2022-12-31T01:05:05.882Z,1002.84
2022-12-31T01:06:05.869Z,1002.87
2022-12-31T01:07:05.880Z,1002.86
2022-12-31T01:08:05.834Z,1002.91
2022-12-31T01:09:05.808Z,1002.94
2022-12-31T01:10:05.801Z,1002.97
2022-12-31T01:11:05.824Z,1002.96
2022-12-31T01:12:05.792Z,1002.93
2022-12-31T01:13:05.806Z,1002.97
2022-12-31T01:14:05.794Z,1002.99
2022-12-31T01:15:05.770Z,1003.03
2022-12-31T01:16:05.783Z,1003.05
2022-12-31T01:17:05.765Z,1003.08
2022-12-31T01:18:05.729Z,1003.08
2022-12-31T01:19:05.729Z,1003.10
2022-12-31T01:20:05.713Z,1003.10
2022-12-31T01:21:05.714Z,1003.10
2022-12-31T01:22:05.727Z,1003.10
2022-12-31T01:23:05.668Z,1003.10
2022-12-31T01:24:05.676Z,1003.06
2022-12-31T01:25:05.699Z,1003.06
2022-12-31T01:26:05.638Z,1003.06
2022-12-31T01:27:05.657Z,1003.05
2022-12-31T01:28:05.638Z,1003.05
2022-12-31T01:29:05.632Z,1003.09
2022-12-31T01:30:05.692Z,1003.10
2022-12-31T01:31:05.650Z,1003.13
2022-12-31T01:32:05.631Z,1003.16
2022-12-31T01:33:05.567Z,1003.15
2022-12-31T01:34:05.577Z,1003.18
2022-12-31T01:35:05.543Z,1003.19
2022-12-31T01:36:05.606Z,1003.19
2022-12-31T01:37:05.631Z,1003.15
2022-12-31T01:38:05.576Z,1003.14
2022-12-31T01:39:05.553Z,1003.11
2022-12-31T01:40:05.620Z,1003.11
2022-12-31T01:41:05.482Z,1003.09
2022-12-31T01:42:05.487Z,1003.17
2022-12-31T01:43:05.621Z,1003.22
2022-12-31T01:44:05.471Z,1003.23
2022-12-31T01:45:05.440Z,1003.24
2022-12-31T01:46:05.437Z,1003.19
2022-12-31T01:47:05.446Z,1003.19
2022-12-31T01:48:05.444Z,1003.21
2022-12-31T01:49:05.411Z,1003.25
2022-12-31T01:50:05.400Z,1003.27
2022-12-31T01:51:05.990Z,1003.29
2022-12-31T01:52:05.388Z,1003.29
2022-12-31T01:53:05.353Z,1003.30
2022-12-31T01:54:05.355Z,1003.29
2022-12-31T01:55:05.362Z,1003.26
2022-12-31T01:56:05.330Z,1003.27
2022-12-31T01:57:05.335Z,1003.29
2022-12-31T01:58:05.311Z,1003.33
2022-12-31T01:59:05.302Z,1003.35
2022-12-31T02:00:05.313Z,1003.34
2022-12-31T02:01:05.306Z,1003.35
2022-12-31T02:02:05.384Z,1003.34
2022-12-31T02:03:05.365Z,1003.28
2022-12-31T02:04:05.249Z,1003.25
2022-12-31T02:05:05.235Z,1003.23
2022-12-31T02:06:05.230Z,1003.24
2022-12-31T02:07:05.229Z,1003.28
2022-12-31T02:08:05.216Z,1003.29
2022-12-31T02:09:05.196Z,1003.32
2022-12-31T02:10:05.265Z,1003.34
2022-12-31T02:11:05.166Z,1003.35
2022-12-31T02:12:05.176Z,1003.34
2022-12-31T02:13:05.147Z,1003.33
2022-12-31T02:14:05.151Z,1003.36
2022-12-31T02:15:05.130Z,1003.37
2022-12-31T02:16:05.157Z,1003.36
2022-12-31T02:17:05.128Z,1003.37
2022-12-31T02:18:05.097Z,1003.42
2022-12-31T02:19:05.099Z,1003.43
2022-12-31T02:20:05.080Z,1003.47
2022-12-31T02:21:05.076Z,1003.47
2022-12-31T02:22:05.092Z,1003.48
2022-12-31T02:23:05.041Z,1003.48
2022-12-31T02:24:05.046Z,1003.50
2022-12-31T02:25:05.027Z,1003.50
2022-12-31T02:26:05.021Z,1003.48
2022-12-31T02:27:05.019Z,1003.48
2022-12-31T02:28:04.994Z,1003.47
2022-12-31T02:29:04.987Z,1003.48
2022-12-31T02:30:05.011Z,1003.43
2022-12-31T02:31:04.983Z,1003.47
2022-12-31T02:32:04.984Z,1003.46
2022-12-31T02:33:04.981Z,1003.44
2022-12-31T02:34:04.941Z,1003.42
2022-12-31T02:35:04.929Z,1003.41
2022-12-31T02:36:04.919Z,1003.39
2022-12-31T02:37:04.975Z,1003.40
2022-12-31T02:38:04.900Z,1003.41
2022-12-31T02:39:04.879Z,1003.38
2022-12-31T02:40:04.892Z,1003.37
2022-12-31T02:41:04.881Z,1003.35
2022-12-31T02:42:04.881Z,1003.33
2022-12-31T02:43:04.851Z,1003.32
2022-12-31T02:44:04.841Z,1003.31
2022-12-31T02:45:04.818Z,1003.27
2022-12-31T02:46:04.929Z,1003.24
2022-12-31T02:47:04.834Z,1003.22
2022-12-31T02:48:04.793Z,1003.25
2022-12-31T02:49:04.779Z,1003.29
2022-12-31T02:50:04.781Z,1003.32
2022-12-31T02:51:04.762Z,1003.32
2022-12-31T02:52:04.799Z,1003.31
2022-12-31T02:53:04.740Z,1003.30
2022-12-31T02:54:04.757Z,1003.30
2022-12-31T02:55:04.720Z,1003.30
2022-12-31T02:56:04.727Z,1003.32
2022-12-31T02:57:04.745Z,1003.30
2022-12-31T02:58:04.702Z,1003.29
2022-12-31T02:59:04.679Z,1003.28
2022-12-31T03:00:04.701Z,1003.30
2022-12-31T03:01:04.754Z,1003.31
2022-12-31T03:02:04.731Z,1003.33
2022-12-31T03:03:04.661Z,1003.35
2022-12-31T03:04:04.629Z,1003.36
2022-12-31T03:05:04.605Z,1003.36
2022-12-31T03:06:04.638Z,1003.32
2022-12-31T03:07:04.624Z,1003.31
2022-12-31T03:08:04.592Z,1003.30
2022-12-31T03:09:04.587Z,1003.33
2022-12-31T03:10:04.567Z,1003.31
2022-12-31T03:11:04.543Z,1003.23
2022-12-31T03:12:04.611Z,1003.22
2022-12-31T03:13:04.526Z,1003.22
2022-12-31T03:14:04.533Z,1003.24
2022-12-31T03:15:04.534Z,1003.22
2022-12-31T03:16:04.543Z,1003.24
2022-12-31T03:17:04.506Z,1003.23
2022-12-31T03:18:04.492Z,1003.29
2022-12-31T03:19:04.492Z,1003.31
2022-12-31T03:20:04.456Z,1003.19
2022-12-31T03:21:04.467Z,1003.19
2022-12-31T03:22:04.443Z,1003.24
2022-12-31T03:23:04.420Z,1003.27
2022-12-31T03:24:04.423Z,1003.28
2022-12-31T03:25:04.424Z,1003.25
2022-12-31T03:26:04.416Z,1003.24
2022-12-31T03:27:04.388Z,1003.20
2022-12-31T03:28:04.381Z,1003.13
2022-12-31T03:29:04.391Z,1003.20
2022-12-31T03:30:04.361Z,1003.22
2022-12-31T03:31:04.442Z,1003.20
2022-12-31T03:32:04.352Z,1003.20
2022-12-31T03:33:04.331Z,1003.15
2022-12-31T03:34:04.328Z,1003.07
2022-12-31T03:35:04.305Z,1003.16
2022-12-31T03:36:04.335Z,1003.14
2022-12-31T03:37:04.346Z,1003.11
2022-12-31T03:38:04.295Z,1003.12
2022-12-31T03:39:04.259Z,1003.20
2022-12-31T03:40:04.259Z,1003.17
2022-12-31T03:41:04.244Z,1003.18
2022-12-31T03:42:04.263Z,1003.17
2022-12-31T03:43:04.221Z,1003.14
2022-12-31T03:44:04.246Z,1003.14
2022-12-31T03:45:04.209Z,1003.19
2022-12-31T03:46:04.258Z,1003.22
2022-12-31T03:47:04.211Z,1003.16
2022-12-31T03:48:04.170Z,1003.12
2022-12-31T03:49:04.157Z,1003.09
2022-12-31T03:50:04.149Z,1003.06
2022-12-31T03:51:04.146Z,1003.04
2022-12-31T03:52:04.153Z,1002.97
2022-12-31T03:53:04.128Z,1002.96
2022-12-31T03:54:04.123Z,1002.91
2022-12-31T03:55:04.098Z,1002.89
2022-12-31T03:56:04.118Z,1002.91
2022-12-31T03:57:04.129Z,1002.89
2022-12-31T03:58:04.073Z,1002.91
2022-12-31T03:59:04.062Z,1002.90
2022-12-31T04:00:04.046Z,1002.89
2022-12-31T04:01:04.155Z,1002.88
2022-12-31T04:02:04.213Z,1002.82
2022-12-31T04:03:04.105Z,1002.82
2022-12-31T04:04:04.005Z,1002.81
2022-12-31T04:05:03.993Z,1002.78
2022-12-31T04:06:04.006Z,1002.77
2022-12-31T04:07:04.030Z,1002.78
2022-12-31T04:08:03.963Z,1002.82
2022-12-31T04:09:03.979Z,1002.83
2022-12-31T04:10:03.954Z,1002.82
2022-12-31T04:11:03.944Z,1002.78
2022-12-31T04:12:03.943Z,1002.75
2022-12-31T04:13:03.925Z,1002.81
2022-12-31T04:14:03.919Z,1002.83
2022-12-31T04:15:03.891Z,1002.88
2022-12-31T04:16:03.951Z,1002.85
2022-12-31T04:17:03.886Z,1002.90
2022-12-31T04:18:03.869Z,1002.93
2022-12-31T04:19:03.873Z,1002.95
2022-12-31T04:20:03.863Z,1002.86
2022-12-31T04:21:03.847Z,1002.86
2022-12-31T04:22:03.820Z,1002.85
2022-12-31T04:23:03.859Z,1002.85
2022-12-31T04:24:03.802Z,1002.86
2022-12-31T04:25:03.792Z,1002.89
2022-12-31T04:26:03.845Z,1002.89
2022-12-31T04:27:07.789Z,1002.86
2022-12-31T04:28:03.769Z,1002.88
2022-12-31T04:29:03.752Z,1002.81
2022-12-31T04:30:03.814Z,1002.77
2022-12-31T04:31:03.764Z,1002.76
2022-12-31T04:32:03.824Z,1002.70
2022-12-31T04:33:03.701Z,1002.75
2022-12-31T04:34:03.709Z,1002.78
2022-12-31T04:35:03.714Z,1002.83
2022-12-31T04:36:03.729Z,1002.86
2022-12-31T04:37:03.687Z,1002.90
2022-12-31T04:38:03.673Z,1002.98
2022-12-31T04:39:03.643Z,1002.92
2022-12-31T04:40:06.267Z,1002.92
2022-12-31T04:41:03.626Z,1002.93
2022-12-31T04:42:03.658Z,1002.88
2022-12-31T04:43:03.602Z,1002.90
2022-12-31T04:44:03.610Z,1002.86
2022-12-31T04:45:03.606Z,1002.84
2022-12-31T04:46:03.620Z,1002.80
2022-12-31T04:47:03.562Z,1002.77
2022-12-31T04:48:03.642Z,1002.79
2022-12-31T04:49:03.558Z,1002.72
2022-12-31T04:50:03.553Z,1002.71
2022-12-31T04:51:03.537Z,1002.74
2022-12-31T04:52:04.489Z,1002.78
2022-12-31T04:53:03.539Z,1002.71
2022-12-31T04:54:03.493Z,1002.72
2022-12-31T04:55:03.477Z,1002.68
2022-12-31T04:56:03.487Z,1002.63
2022-12-31T04:57:03.461Z,1002.62
2022-12-31T04:58:03.477Z,1002.56
2022-12-31T04:59:03.449Z,1002.53
2022-12-31T05:00:03.456Z,1002.49
2022-12-31T05:01:04.436Z,1002.42
2022-12-31T05:02:03.656Z,1002.44
2022-12-31T05:03:03.480Z,1002.44
2022-12-31T05:04:03.387Z,1002.42
2022-12-31T05:05:03.379Z,1002.40
2022-12-31T05:06:03.378Z,1002.45
2022-12-31T05:07:03.376Z,1002.46
2022-12-31T05:08:03.356Z,1002.39
2022-12-31T05:09:03.342Z,1002.48
2022-12-31T05:10:03.341Z,1002.49
2022-12-31T05:11:03.320Z,1002.49
2022-12-31T05:12:03.301Z,1002.42
2022-12-31T05:13:03.309Z,1002.42
2022-12-31T05:14:03.300Z,1002.41
2022-12-31T05:15:03.283Z,1002.44
2022-12-31T05:16:03.273Z,1002.43
2022-12-31T05:17:03.289Z,1002.40
2022-12-31T05:18:03.274Z,1002.40
2022-12-31T05:19:03.234Z,1002.38
2022-12-31T05:20:03.225Z,1002.36
2022-12-31T05:21:03.221Z,1002.37
2022-12-31T05:22:03.221Z,1002.32
2022-12-31T05:23:03.211Z,1002.39
2022-12-31T05:24:03.183Z,1002.40
2022-12-31T05:25:03.178Z,1002.40
2022-12-31T05:26:03.171Z,1002.50
2022-12-31T05:27:03.179Z,1002.53
2022-12-31T05:28:03.177Z,1002.52
2022-12-31T05:29:03.140Z,1002.51
2022-12-31T05:30:03.985Z,1002.55
2022-12-31T05:31:03.183Z,1002.53
2022-12-31T05:32:03.107Z,1002.52
2022-12-31T05:33:03.186Z,1002.50
2022-12-31T05:34:03.137Z,1002.53
2022-12-31T05:35:03.111Z,1002.45
2022-12-31T05:36:03.103Z,1002.42
2022-12-31T05:37:03.043Z,1002.48
2022-12-31T05:38:03.098Z,1002.50
2022-12-31T05:39:03.029Z,1002.53
2022-12-31T05:40:03.020Z,1002.54
2022-12-31T05:41:03.042Z,1002.60
2022-12-31T05:42:02.995Z,1002.63
2022-12-31T05:43:03.011Z,1002.66
2022-12-31T05:44:02.994Z,1002.68
2022-12-31T05:45:02.968Z,1002.57
2022-12-31T05:46:03.052Z,1002.56
2022-12-31T05:47:02.997Z,1002.48
2022-12-31T05:48:02.966Z,1002.44
2022-12-31T05:49:02.926Z,1002.44
2022-12-31T05:50:02.973Z,1002.38
2022-12-31T05:51:02.978Z,1002.29
2022-12-31T05:52:02.890Z,1002.27
2022-12-31T05:53:02.949Z,1002.22
2022-12-31T05:54:02.899Z,1002.18
2022-12-31T05:55:02.865Z,1002.15
2022-12-31T05:56:02.867Z,1002.19
2022-12-31T05:57:02.842Z,1002.19
2022-12-31T05:58:02.859Z,1002.17
2022-12-31T05:59:02.828Z,1002.19
2022-12-31T06:00:02.803Z,1002.14
2022-12-31T06:01:02.879Z,1002.17
2022-12-31T06:02:02.807Z,1002.12
2022-12-31T06:03:02.984Z,1002.17
2022-12-31T06:04:02.847Z,1002.13
2022-12-31T06:05:02.779Z,1002.11
2022-12-31T06:06:02.751Z,1002.06
2022-12-31T06:07:02.736Z,1002.06
2022-12-31T06:08:02.751Z,1002.04
2022-12-31T06:09:02.721Z,1002.00
2022-12-31T06:10:02.703Z,1001.96
2022-12-31T06:11:02.694Z,1001.97
2022-12-31T06:12:02.695Z,1001.96
2022-12-31T06:13:02.748Z,1001.96
2022-12-31T06:14:02.680Z,1001.94
2022-12-31T06:15:02.661Z,1001.91
2022-12-31T06:16:02.710Z,1001.88
2022-12-31T06:17:02.658Z,1001.85
2022-12-31T06:18:02.638Z,1001.87
2022-12-31T06:19:02.627Z,1001.85
2022-12-31T06:20:07.300Z,1001.81
2022-12-31T06:21:02.604Z,1001.80
2022-12-31T06:22:02.623Z,1001.79
2022-12-31T06:23:02.566Z,1001.79
2022-12-31T06:24:02.567Z,1001.85
2022-12-31T06:25:02.570Z,1001.84
2022-12-31T06:26:02.567Z,1001.87
2022-12-31T06:27:02.555Z,1001.88
2022-12-31T06:28:02.510Z,1001.84
2022-12-31T06:29:02.535Z,1001.80
2022-12-31T06:30:02.511Z,1001.78
2022-12-31T06:31:02.556Z,1001.72
2022-12-31T06:32:02.494Z,1001.75
2022-12-31T06:33:02.502Z,1001.73
2022-12-31T06:34:02.467Z,1001.76
2022-12-31T06:35:02.456Z,1001.68
2022-12-31T06:36:02.441Z,1001.63
2022-12-31T06:37:02.422Z,1001.73
2022-12-31T06:38:02.457Z,1001.69
2022-12-31T06:39:02.430Z,1001.70
2022-12-31T06:40:02.394Z,1001.66
2022-12-31T06:41:02.387Z,1001.70
2022-12-31T06:42:02.384Z,1001.72
2022-12-31T06:43:02.396Z,1001.62
2022-12-31T06:44:02.360Z,1001.71
2022-12-31T06:45:02.295Z,1001.67
2022-12-31T06:46:02.382Z,1001.69
2022-12-31T06:47:02.360Z,1001.69
2022-12-31T06:48:02.287Z,1001.74
2022-12-31T06:49:02.258Z,1001.72
2022-12-31T06:50:02.235Z,1001.83
2022-12-31T06:51:02.294Z,1001.85
2022-12-31T06:52:02.291Z,1001.82
2022-12-31T06:53:02.225Z,1001.73
2022-12-31T06:54:02.201Z,1001.78
2022-12-31T06:55:02.232Z,1001.72
2022-12-31T06:56:02.173Z,1001.65
2022-12-31T06:57:02.206Z,1001.65
2022-12-31T06:58:02.163Z,1001.65
2022-12-31T06:59:02.168Z,1001.59
2022-12-31T07:00:02.184Z,1001.69
2022-12-31T07:01:02.207Z,1001.64
2022-12-31T07:02:02.291Z,1001.72
2022-12-31T07:03:02.175Z,1001.66
2022-12-31T07:04:02.152Z,1001.68
2022-12-31T07:05:02.083Z,1001.66
2022-12-31T07:06:02.125Z,1001.56
2022-12-31T07:07:02.071Z,1001.65
2022-12-31T07:08:02.677Z,1001.63
2022-12-31T07:09:03.165Z,1001.68
2022-12-31T07:10:03.097Z,1001.72
2022-12-31T07:11:02.456Z,1001.63
2022-12-31T07:12:02.168Z,1001.48
2022-12-31T07:13:02.013Z,1001.55
2022-12-31T07:14:01.980Z,1001.62
2022-12-31T07:15:01.989Z,1001.65
2022-12-31T07:16:02.146Z,1001.55
2022-12-31T07:17:02.021Z,1001.55
2022-12-31T07:18:01.977Z,1001.59
2022-12-31T07:19:01.943Z,1001.58
2022-12-31T07:20:01.956Z,1001.55
2022-12-31T07:21:01.921Z,1001.47
2022-12-31T07:22:01.914Z,1001.44
2022-12-31T07:23:01.911Z,1001.53
2022-12-31T07:24:01.900Z,1001.52
2022-12-31T07:25:01.879Z,1001.63
2022-12-31T07:26:01.860Z,1001.64
2022-12-31T07:27:01.862Z,1001.63
2022-12-31T07:28:01.869Z,1001.61
2022-12-31T07:29:01.839Z,1001.60
2022-12-31T07:30:01.864Z,1001.60
2022-12-31T07:31:01.841Z,1001.57
2022-12-31T07:32:01.830Z,1001.50
2022-12-31T07:33:01.826Z,1001.47
2022-12-31T07:34:01.788Z,1001.47
2022-12-31T07:35:01.776Z,1001.51
2022-12-31T07:36:01.758Z,1001.51
2022-12-31T07:37:01.772Z,1001.64
2022-12-31T07:38:01.772Z,1001.59
2022-12-31T07:39:01.735Z,1001.64
2022-12-31T07:40:01.748Z,1001.71
2022-12-31T07:41:07.303Z,1001.63
2022-12-31T07:42:01.695Z,1001.50
2022-12-31T07:43:01.721Z,1001.66
2022-12-31T07:44:01.685Z,1001.74
2022-12-31T07:45:01.663Z,1001.59
2022-12-31T07:46:01.673Z,1001.61
2022-12-31T07:47:01.738Z,1001.58
2022-12-31T07:48:02.912Z,1001.63
2022-12-31T07:49:01.630Z,1001.62
2022-12-31T07:50:01.637Z,1001.61
2022-12-31T07:51:01.609Z,1001.64
2022-12-31T07:52:01.593Z,1001.65
2022-12-31T07:53:01.657Z,1001.67
2022-12-31T07:54:01.583Z,1001.72
2022-12-31T07:55:01.580Z,1001.73
2022-12-31T07:56:01.565Z,1001.72
2022-12-31T07:57:01.543Z,1001.76
2022-12-31T07:58:01.546Z,1001.80
2022-12-31T07:59:01.522Z,1001.77
2022-12-31T08:00:01.507Z,1001.78
2022-12-31T08:01:01.629Z,1001.87
2022-12-31T08:02:01.571Z,1001.89
2022-12-31T08:03:01.595Z,1001.84
2022-12-31T08:04:01.523Z,1001.90
2022-12-31T08:05:01.464Z,1001.91
2022-12-31T08:06:01.459Z,1001.93
2022-12-31T08:07:01.466Z,1001.87
2022-12-31T08:08:01.448Z,1001.88
2022-12-31T08:09:01.455Z,1001.87
2022-12-31T08:10:01.408Z,1001.88
2022-12-31T08:11:01.395Z,1001.89
2022-12-31T08:12:01.412Z,1001.92
2022-12-31T08:13:01.381Z,1002.03
2022-12-31T08:14:01.380Z,1002.01
2022-12-31T08:15:01.414Z,1002.03
2022-12-31T08:16:01.388Z,1001.92
2022-12-31T08:17:01.335Z,1001.78
2022-12-31T08:18:01.326Z,1001.86
2022-12-31T08:19:01.329Z,1001.91
2022-12-31T08:20:01.297Z,1001.88
2022-12-31T08:21:01.304Z,1001.98
2022-12-31T08:22:01.275Z,1001.94
2022-12-31T08:23:01.272Z,1001.98
2022-12-31T08:24:01.539Z,1001.89
2022-12-31T08:25:01.423Z,1001.87
2022-12-31T08:26:01.270Z,1001.89
2022-12-31T08:27:01.245Z,1001.87
2022-12-31T08:28:01.252Z,1001.88
2022-12-31T08:29:01.218Z,1001.94
2022-12-31T08:30:01.211Z,1001.93
2022-12-31T08:31:01.200Z,1001.96
2022-12-31T08:32:01.228Z,1001.93
2022-12-31T08:33:01.192Z,1001.88
2022-12-31T08:34:05.746Z,1001.84
2022-12-31T08:35:01.175Z,1001.99
2022-12-31T08:36:01.126Z,1001.87
2022-12-31T08:37:01.138Z,1001.84
2022-12-31T08:38:01.108Z,1001.86
2022-12-31T08:39:01.125Z,1001.91
2022-12-31T08:40:01.105Z,1001.90
2022-12-31T08:41:01.104Z,1001.93
2022-12-31T08:42:01.126Z,1001.99
2022-12-31T08:43:01.069Z,1002.03
2022-12-31T08:44:01.140Z,1001.96
2022-12-31T08:45:01.039Z,1002.05
2022-12-31T08:46:01.118Z,1002.04
2022-12-31T08:47:01.020Z,1002.14
2022-12-31T08:48:01.025Z,1001.99
2022-12-31T08:49:01.025Z,1001.98
2022-12-31T08:50:00.986Z,1002.00
2022-12-31T08:51:01.039Z,1001.98
2022-12-31T08:52:00.976Z,1001.93
2022-12-31T08:53:00.980Z,1001.97
2022-12-31T08:54:00.952Z,1001.94
2022-12-31T08:55:00.942Z,1001.91
2022-12-31T08:56:00.956Z,1001.98
2022-12-31T08:57:00.938Z,1002.07
2022-12-31T08:58:00.899Z,1002.08
2022-12-31T08:59:00.922Z,1002.15
2022-12-31T09:00:00.886Z,1002.09
2022-12-31T09:01:00.957Z,1002.03
2022-12-31T09:02:01.043Z,1002.03
2022-12-31T09:03:00.886Z,1002.01
2022-12-31T09:04:00.894Z,1002.00
2022-12-31T09:05:00.833Z,1002.05
2022-12-31T09:06:00.857Z,1002.04
2022-12-31T09:07:00.845Z,1001.98
2022-12-31T09:08:00.803Z,1001.96
2022-12-31T09:09:00.840Z,1002.10
2022-12-31T09:10:00.794Z,1002.14
2022-12-31T09:11:00.797Z,1002.04
2022-12-31T09:12:00.761Z,1002.03
2022-12-31T09:13:00.796Z,1002.03
2022-12-31T09:14:00.774Z,1002.03
2022-12-31T09:15:00.752Z,1002.06
2022-12-31T09:16:00.794Z,1002.03
2022-12-31T09:17:00.837Z,1001.98
2022-12-31T09:18:00.695Z,1002.02
2022-12-31T09:19:00.724Z,1002.04
2022-12-31T09:20:00.732Z,1002.12
2022-12-31T09:21:00.708Z,1001.98
2022-12-31T09:22:00.673Z,1002.02
2022-12-31T09:23:00.649Z,1002.03
2022-12-31T09:24:05.943Z,1001.95
2022-12-31T09:25:00.634Z,1002.06
2022-12-31T09:26:00.661Z,1002.06
2022-12-31T09:27:00.623Z,1002.13
2022-12-31T09:28:00.605Z,1002.09
2022-12-31T09:29:00.601Z,1002.14
2022-12-31T09:30:00.570Z,1002.12
2022-12-31T09:31:00.557Z,1001.98
2022-12-31T09:32:00.565Z,1002.04
2022-12-31T09:33:01.486Z,1001.98
2022-12-31T09:34:00.558Z,1001.94
2022-12-31T09:35:00.527Z,1001.95
2022-12-31T09:36:00.541Z,1001.96
2022-12-31T09:37:00.496Z,1001.94
2022-12-31T09:38:00.503Z,1001.93
2022-12-31T09:39:00.485Z,1002.07
2022-12-31T09:40:00.470Z,1002.08
2022-12-31T09:41:00.469Z,1001.95
2022-12-31T09:42:00.493Z,1001.93
2022-12-31T09:43:00.444Z,1002.00
2022-12-31T09:44:01.454Z,1001.88
2022-12-31T09:45:00.420Z,1001.93
2022-12-31T09:46:00.560Z,1002.05
2022-12-31T09:47:00.402Z,1001.98
2022-12-31T09:48:00.411Z,1001.98
2022-12-31T09:49:00.387Z,1001.95
2022-12-31T09:50:00.361Z,1001.92
2022-12-31T09:51:00.360Z,1001.90
2022-12-31T09:52:00.337Z,1001.98
2022-12-31T09:53:00.396Z,1001.70
2022-12-31T09:54:00.340Z,1002.04
2022-12-31T09:55:00.356Z,1001.93
2022-12-31T09:56:00.433Z,1001.75
2022-12-31T09:57:00.286Z,1001.85
2022-12-31T09:58:00.284Z,1001.67
2022-12-31T09:59:00.281Z,1001.69
2022-12-31T10:00:00.256Z,1001.87
2022-12-31T10:01:00.411Z,1001.73
2022-12-31T10:02:00.469Z,1001.74
2022-12-31T10:03:00.264Z,1001.68
2022-12-31T10:04:00.236Z,1001.75
2022-12-31T10:05:00.210Z,1001.81
2022-12-31T10:06:00.262Z,1001.84
2022-12-31T10:07:00.207Z,1001.80
2022-12-31T10:08:00.182Z,1001.82
2022-12-31T10:09:00.191Z,1001.85
2022-12-31T10:10:00.220Z,1001.81
2022-12-31T10:11:00.156Z,1001.81
2022-12-31T10:12:06.164Z,1001.85
2022-12-31T10:13:00.126Z,1001.99
2022-12-31T10:14:00.129Z,1001.93
2022-12-31T10:15:00.139Z,1001.87
2022-12-31T10:16:00.100Z,1001.90
2022-12-31T10:17:00.117Z,1001.84
2022-12-31T10:18:00.133Z,1001.96
2022-12-31T10:19:00.076Z,1001.85
2022-12-31T10:20:00.086Z,1001.92
2022-12-31T10:21:00.043Z,1001.98
2022-12-31T10:22:00.117Z,1002.02
2022-12-31T10:23:00.018Z,1002.00
2022-12-31T10:24:00.047Z,1002.03
2022-12-31T10:24:59.982Z,1001.85
2022-12-31T10:26:00.008Z,1001.91
2022-12-31T10:26:59.962Z,1001.80
2022-12-31T10:27:59.973Z,1002.12
2022-12-31T10:28:59.987Z,1002.07
2022-12-31T10:29:59.946Z,1002.11
2022-12-31T10:30:59.977Z,1002.12
2022-12-31T10:31:59.927Z,1002.13
2022-12-31T10:32:59.925Z,1002.01
2022-12-31T10:33:59.914Z,1002.03
2022-12-31T10:34:59.911Z,1002.01
2022-12-31T10:35:59.886Z,1002.07
2022-12-31T10:36:59.856Z,1002.17
2022-12-31T10:37:59.872Z,1002.34
2022-12-31T10:38:59.854Z,1002.17
2022-12-31T10:39:59.843Z,1002.32
2022-12-31T10:40:59.837Z,1002.24
2022-12-31T10:41:59.818Z,1002.32
2022-12-31T10:42:59.821Z,1002.24
2022-12-31T10:43:59.816Z,1002.26
2022-12-31T10:44:59.837Z,1002.14
2022-12-31T10:45:59.778Z,1002.24
2022-12-31T10:46:59.763Z,1002.25
2022-12-31T10:47:59.747Z,1002.39
2022-12-31T10:48:59.747Z,1002.41
2022-12-31T10:49:59.729Z,1002.36
2022-12-31T10:50:59.712Z,1002.42
2022-12-31T10:51:59.709Z,1002.41
2022-12-31T10:52:59.696Z,1002.48
2022-12-31T10:53:59.704Z,1002.50
2022-12-31T10:54:59.704Z,1002.57
2022-12-31T10:55:59.681Z,1002.45
2022-12-31T10:56:59.651Z,1002.53
2022-12-31T10:58:04.037Z,1002.59
2022-12-31T10:58:59.659Z,1002.64
2022-12-31T10:59:59.630Z,1002.58
2022-12-31T11:00:59.837Z,1002.63
2022-12-31T11:01:59.670Z,1002.66
2022-12-31T11:02:59.705Z,1002.70
2022-12-31T11:03:59.601Z,1002.69
2022-12-31T11:04:59.578Z,1002.75
2022-12-31T11:05:59.569Z,1002.71
2022-12-31T11:06:59.564Z,1002.77
2022-12-31T11:07:59.544Z,1002.76
2022-12-31T11:08:59.543Z,1002.78
2022-12-31T11:09:59.522Z,1002.79
2022-12-31T11:10:59.503Z,1002.89
2022-12-31T11:11:59.509Z,1002.69
2022-12-31T11:12:59.477Z,1002.76
2022-12-31T11:13:59.476Z,1002.71
2022-12-31T11:14:59.466Z,1002.72
2022-12-31T11:15:59.485Z,1002.75
2022-12-31T11:16:59.658Z,1002.76
2022-12-31T11:17:59.470Z,1002.73
2022-12-31T11:18:59.690Z,1002.81
2022-12-31T11:19:59.422Z,1002.74
2022-12-31T11:20:59.402Z,1002.76
2022-12-31T11:21:59.424Z,1002.76
2022-12-31T11:22:59.395Z,1002.80
2022-12-31T11:23:59.374Z,1002.76
2022-12-31T11:24:59.384Z,1002.68
2022-12-31T11:25:59.365Z,1002.73
2022-12-31T11:26:59.363Z,1002.69
2022-12-31T11:27:59.343Z,1002.69
2022-12-31T11:28:59.323Z,1002.66
2022-12-31T11:29:59.339Z,1002.70
2022-12-31T11:30:59.337Z,1002.69
2022-12-31T11:31:59.325Z,1002.68
2022-12-31T11:32:59.291Z,1002.67
2022-12-31T11:33:59.281Z,1002.65
2022-12-31T11:34:59.280Z,1002.68
2022-12-31T11:35:59.251Z,1002.68
2022-12-31T11:36:59.234Z,1002.69
2022-12-31T11:37:59.222Z,1002.57
2022-12-31T11:38:59.219Z,1002.56
2022-12-31T11:39:59.262Z,1002.56
2022-12-31T11:40:59.216Z,1002.53
2022-12-31T11:41:59.201Z,1002.49
2022-12-31T11:42:59.231Z,1002.51
2022-12-31T11:43:59.176Z,1002.48
2022-12-31T11:44:59.189Z,1002.48
2022-12-31T11:45:59.216Z,1002.43
2022-12-31T11:46:59.134Z,1002.43
2022-12-31T11:48:59.140Z,1002.46
2022-12-31T11:49:59.132Z,1002.46
2022-12-31T11:50:59.078Z,1002.41
2022-12-31T11:51:59.111Z,1002.38
2022-12-31T11:52:59.084Z,1002.34
2022-12-31T11:53:59.066Z,1002.39
2022-12-31T11:54:59.052Z,1002.46
2022-12-31T11:55:59.038Z,1002.47
2022-12-31T11:56:59.035Z,1002.42
2022-12-31T11:57:59.018Z,1002.43
2022-12-31T11:58:59.030Z,1002.48
2022-12-31T11:59:59.022Z,1002.45
2022-12-31T12:00:59.033Z,1002.35
2022-12-31T12:01:58.990Z,1002.40
2022-12-31T12:02:59.037Z,1002.41
2022-12-31T12:03:58.998Z,1002.38
2022-12-31T12:04:58.968Z,1002.35
2022-12-31T12:05:58.957Z,1002.41